createdAt,value
2022-11-22T00:04:36.975Z,12.10
2022-11-22T00:09:40.262Z,12.00
2022-11-22T00:14:43.737Z,12.00
2022-11-22T00:19:48.386Z,12.00
2022-11-22T00:24:53.093Z,12.00
2022-11-22T00:29:56.424Z,12.00
2022-11-22T00:35:01.112Z,12.00
2022-11-22T00:40:04.948Z,11.90
2022-11-22T00:45:09.367Z,12.00
2022-11-22T00:50:14.052Z,11.90
2022-11-22T00:55:17.435Z,11.90
2022-11-22T01:00:21.347Z,11.80
2022-11-22T01:05:25.996Z,11.80
2022-11-22T01:10:29.228Z,11.80
2022-11-22T01:15:32.924Z,11.70
2022-11-22T01:20:37.623Z,11.70
2022-11-22T01:25:44.355Z,11.60
2022-11-22T01:30:50.842Z,11.60
2022-11-22T01:35:55.454Z,11.60
2022-11-22T01:40:58.891Z,11.50
2022-11-22T01:46:04.677Z,11.50
2022-11-22T01:51:16.931Z,11.40
2022-11-22T01:56:22.213Z,11.40
2022-11-22T02:01:25.934Z,11.40
2022-11-22T02:06:38.722Z,11.40
2022-11-22T02:11:47.193Z,11.40
2022-11-22T02:16:50.519Z,11.40
2022-11-22T02:22:01.075Z,11.40
2022-11-22T02:27:06.179Z,11.40
2022-11-22T02:32:09.510Z,11.40
2022-11-22T02:37:15.490Z,11.40
2022-11-22T02:42:20.225Z,11.50
2022-11-22T02:47:23.679Z,11.50
2022-11-22T02:52:27.430Z,11.50
2022-11-22T02:57:32.699Z,11.60
2022-11-22T03:02:35.968Z,11.60
2022-11-22T03:07:39.343Z,11.60
2022-11-22T03:12:44.523Z,11.70
2022-11-22T03:17:47.827Z,11.70
2022-11-22T03:22:51.187Z,11.70
2022-11-22T03:27:56.249Z,11.80
2022-11-22T03:32:59.462Z,11.80
2022-11-22T03:38:02.746Z,11.90
2022-11-22T03:43:07.454Z,11.90
2022-11-22T03:48:10.750Z,12.00
2022-11-22T03:53:14.532Z,12.00
2022-11-22T03:58:19.302Z,12.00
2022-11-22T04:03:22.851Z,12.00
2022-11-22T04:08:26.148Z,12.00
2022-11-22T04:13:45.004Z,12.10
2022-11-22T04:18:48.503Z,12.10
2022-11-22T04:24:11.888Z,12.20
2022-11-22T04:29:16.726Z,12.20
2022-11-22T04:34:20.187Z,12.20
2022-11-22T04:39:23.894Z,12.30
2022-11-22T04:44:43.383Z,12.30
2022-11-22T04:49:46.697Z,12.40
2022-11-22T04:54:49.976Z,12.40
2022-11-22T04:59:54.578Z,12.40
2022-11-22T05:04:58.016Z,12.40
2022-11-22T05:10:01.258Z,12.50
2022-11-22T05:15:06.903Z,12.50
2022-11-22T05:20:11.335Z,12.60
2022-11-22T05:25:14.587Z,12.60
2022-11-22T05:30:19.267Z,12.60
2022-11-22T05:35:22.564Z,12.60
2022-11-22T05:40:26.382Z,12.60
2022-11-22T05:45:31.080Z,12.70
2022-11-22T05:50:35.602Z,12.90
2022-11-22T05:55:39.120Z,13.00
2022-11-22T06:00:43.972Z,13.00
2022-11-22T06:05:52.902Z,13.10
2022-11-22T06:10:56.266Z,13.20
2022-11-22T06:16:02.945Z,13.20
2022-11-22T06:21:08.408Z,13.20
2022-11-22T06:26:14.845Z,13.20
2022-11-22T06:31:20.878Z,13.20
2022-11-22T06:36:25.999Z,13.20
2022-11-22T06:41:33.682Z,13.20
2022-11-22T06:46:39.046Z,13.20
2022-11-22T06:51:42.351Z,13.20
2022-11-22T06:56:45.665Z,13.30
2022-11-22T07:01:50.395Z,13.30
2022-11-22T07:06:53.829Z,13.30
2022-11-22T07:11:57.140Z,13.30
2022-11-22T07:17:01.843Z,13.30
2022-11-22T07:22:05.089Z,13.40
2022-11-22T07:27:08.404Z,13.60
2022-11-22T07:32:13.268Z,13.80
2022-11-22T07:37:16.675Z,13.90
2022-11-22T07:42:25.240Z,14.00
2022-11-22T07:47:31.736Z,14.00
2022-11-22T07:52:35.005Z,14.00
2022-11-22T07:57:38.490Z,14.00
2022-11-22T08:02:43.204Z,14.00
2022-11-22T08:07:49.890Z,13.90
2022-11-22T08:12:53.459Z,13.90
2022-11-22T08:17:59.178Z,13.90
2022-11-22T08:23:02.502Z,13.70
2022-11-22T08:28:06.104Z,13.70
2022-11-22T08:33:10.791Z,13.70
2022-11-22T08:38:14.425Z,13.60
2022-11-22T08:43:17.790Z,13.60
2022-11-22T08:48:22.894Z,13.50
2022-11-22T08:53:27.441Z,13.50
2022-11-22T08:58:32.345Z,13.40
2022-11-22T09:03:37.788Z,13.40
2022-11-22T09:08:44.579Z,13.30
2022-11-22T09:13:52.576Z,13.20
2022-11-22T09:18:57.301Z,13.20
2022-11-22T09:24:00.672Z,13.20
2022-11-22T09:29:04.188Z,13.10
2022-11-22T09:34:09.463Z,13.10
2022-11-22T09:39:12.956Z,13.10
2022-11-22T09:44:25.408Z,13.10
2022-11-22T09:49:34.441Z,13.10
2022-11-22T09:54:44.602Z,13.10
2022-11-22T09:59:51.627Z,13.10
2022-11-22T10:04:58.961Z,13.10
2022-11-22T10:10:05.709Z,13.20
2022-11-22T10:15:18.906Z,13.20
2022-11-22T10:20:26.278Z,13.20
2022-11-22T10:25:44.563Z,13.20
2022-11-22T10:30:56.434Z,13.20
2022-11-22T10:36:23.103Z,13.20
2022-11-22T10:41:42.962Z,13.20
2022-11-22T10:46:57.404Z,13.20
2022-11-22T10:52:10.459Z,13.30
2022-11-22T10:57:19.575Z,13.30
2022-11-22T11:02:51.264Z,13.30
2022-11-22T11:08:04.114Z,13.30
2022-11-22T11:13:21.621Z,13.30
2022-11-22T11:18:32.109Z,13.40
2022-11-22T11:23:36.933Z,13.40
2022-11-22T11:28:40.449Z,13.50
2022-11-22T11:33:44.173Z,13.50
2022-11-22T11:38:55.696Z,13.50
2022-11-22T11:44:00.528Z,13.50
2022-11-22T11:49:12.058Z,13.60
2022-11-22T11:54:20.105Z,13.50
2022-11-22T11:59:24.916Z,13.60
2022-11-22T12:04:31.054Z,13.60
2022-11-22T12:09:38.287Z,13.70
2022-11-22T12:15:09.600Z,13.70
2022-11-22T12:20:17.450Z,13.70
2022-11-22T12:25:33.473Z,13.80
2022-11-22T12:30:40.528Z,13.80
2022-11-22T12:35:45.661Z,13.90
2022-11-22T12:40:54.281Z,13.90
2022-11-22T12:46:01.994Z,13.90
2022-11-22T12:51:10.380Z,13.90
2022-11-22T12:56:26.221Z,14.00
2022-11-22T13:01:40.505Z,14.00
2022-11-22T13:06:50.175Z,14.00
2022-11-22T13:11:59.060Z,14.10
2022-11-22T13:17:07.999Z,14.20
2022-11-22T13:22:17.560Z,14.30
2022-11-22T13:27:29.094Z,14.30
2022-11-22T13:32:33.912Z,14.30
2022-11-22T13:37:40.390Z,14.40
2022-11-22T13:42:45.108Z,14.40
2022-11-22T13:47:48.752Z,14.40
2022-11-22T13:52:53.191Z,14.30
2022-11-22T13:58:18.117Z,14.30
2022-11-22T14:03:38.739Z,14.30
2022-11-22T14:08:42.526Z,14.30
2022-11-22T14:13:57.526Z,14.30
2022-11-22T14:19:10.497Z,14.30
2022-11-22T14:24:24.611Z,14.30
2022-11-22T14:30:05.299Z,14.30
2022-11-22T14:35:29.933Z,14.30
2022-11-22T14:40:39.209Z,14.30
2022-11-22T14:45:49.085Z,14.30
2022-11-22T14:50:56.795Z,14.20
2022-11-22T14:56:06.843Z,14.20
2022-11-22T15:01:43.971Z,14.30
2022-11-22T15:09:10.290Z,14.20
2022-11-22T15:12:32.968Z,14.20
2022-11-22T16:01:19.223Z,14.20
2022-11-22T16:06:27.396Z,14.30
2022-11-22T16:11:33.771Z,14.30
2022-11-22T16:16:37.501Z,14.40
2022-11-22T16:21:42.281Z,14.40
2022-11-22T16:26:56.454Z,14.40
2022-11-22T16:32:05.888Z,14.40
2022-11-22T16:37:31.797Z,14.30
2022-11-22T16:42:41.738Z,14.30
2022-11-22T16:47:54.181Z,14.30
2022-11-22T16:53:04.844Z,14.30
2022-11-22T16:58:17.562Z,14.30
2022-11-22T17:03:27.351Z,14.30
2022-11-22T17:08:33.486Z,14.30
2022-11-22T17:13:38.211Z,14.20
2022-11-22T17:18:43.909Z,14.20
2022-11-22T17:23:51.743Z,14.10
2022-11-22T17:28:58.105Z,14.10
2022-11-22T17:34:05.398Z,14.00
2022-11-22T17:39:14.790Z,14.00
2022-11-22T17:44:20.922Z,13.90
2022-11-22T17:49:26.495Z,13.90
2022-11-22T17:54:33.904Z,13.80
2022-11-22T17:59:40.248Z,13.80
2022-11-22T18:04:45.356Z,13.80
2022-11-22T18:09:53.144Z,13.80
2022-11-22T18:14:57.920Z,13.80
2022-11-22T18:20:03.471Z,13.70
2022-11-22T18:25:11.589Z,13.70
2022-11-22T18:30:17.495Z,13.70
2022-11-22T18:35:23.868Z,13.70
2022-11-22T18:40:31.487Z,13.70
2022-11-22T18:45:35.903Z,13.70
2022-11-22T18:50:41.704Z,13.80
2022-11-22T18:55:48.266Z,13.80
2022-11-22T19:00:57.947Z,13.80
2022-11-22T19:06:05.463Z,13.80
2022-11-22T19:11:12.030Z,13.80
2022-11-22T19:16:19.055Z,13.80
2022-11-22T19:21:28.312Z,13.80
2022-11-22T19:26:36.426Z,13.70
2022-11-22T19:31:42.303Z,13.70
2022-11-22T19:36:48.777Z,13.70
2022-11-22T19:41:55.196Z,13.70
2022-11-22T19:47:11.373Z,13.60
2022-11-22T19:52:18.329Z,13.60
2022-11-22T19:57:29.286Z,13.70
2022-11-22T20:02:34.927Z,13.70
2022-11-22T20:07:41.867Z,13.70
2022-11-22T20:12:50.390Z,13.70
2022-11-22T20:17:56.598Z,13.70
2022-11-22T20:23:01.262Z,13.70
2022-11-22T20:28:11.502Z,13.80
2022-11-22T20:33:16.371Z,13.80
2022-11-22T20:38:21.666Z,13.80
2022-11-22T20:43:28.929Z,13.80
2022-11-22T20:48:34.646Z,13.80
2022-11-22T20:53:39.998Z,13.80
2022-11-22T20:58:46.129Z,13.80
2022-11-22T21:03:50.970Z,13.80
2022-11-22T21:08:55.097Z,13.80
2022-11-22T21:14:00.838Z,13.80
2022-11-22T21:19:06.839Z,13.80
2022-11-22T21:24:13.700Z,13.80
2022-11-22T21:29:19.169Z,13.80
2022-11-22T21:34:22.701Z,13.80
2022-11-22T21:39:27.570Z,13.80
2022-11-22T21:44:33.915Z,13.80
2022-11-22T21:49:37.619Z,13.80
2022-11-22T21:54:41.737Z,13.80
2022-11-22T21:59:46.630Z,13.80
2022-11-22T22:04:50.055Z,13.70
2022-11-22T22:09:53.496Z,13.70
2022-11-22T22:14:58.236Z,13.70
2022-11-22T22:20:01.694Z,13.70
2022-11-22T22:25:06.213Z,13.60
2022-11-22T22:30:12.539Z,13.60
2022-11-22T22:35:16.113Z,13.50
2022-11-22T22:40:19.788Z,13.50
2022-11-22T22:45:24.437Z,13.40
2022-11-22T22:50:27.776Z,13.30
2022-11-22T22:55:31.167Z,13.30
2022-11-22T23:00:35.901Z,13.20
2022-11-22T23:05:40.541Z,13.20
2022-11-22T23:10:44.379Z,13.20
2022-11-22T23:15:58.403Z,13.20
2022-11-22T23:21:03.171Z,13.10
2022-11-22T23:26:08.449Z,13.10
2022-11-22T23:31:14.927Z,13.10
2022-11-22T23:36:19.788Z,13.10
2022-11-22T23:41:24.945Z,13.10
2022-11-22T23:46:29.647Z,13.10
2022-11-22T23:51:34.237Z,13.10
2022-11-22T23:56:37.636Z,13.10
